Time;durP1;ratioP1;P1;durP2;ratioP2;P2;SDS_P1;SDS_P2;PMS_P1;PMS_P2;Temp;Humidity;BMP_temperature;BMP_pressure;BME280_temperature;BME280_humidity;BME280_pressure;Samples;Min_cycle;Max_cycle;Signal;HPM_P1;HPM_P2
2023/07/09 00:00:44;;;;;;;;;;;27.10;60.30;;;;;;3997663;29;19931;-47
2023/07/09 00:03:25;;;;;;;;;;;27.10;61.30;;;;;;3997826;29;19931;-47
2023/07/09 00:06:08;;;;;;;;;;;27.10;60.40;;;;;;3998460;29;19935;-45
2023/07/09 00:08:51;;;;;;;;;;;27.10;60.50;;;;;;4008035;29;20019;-44
2023/07/09 00:11:31;;;;;;;;;;;27.10;60.40;;;;;;4001523;29;20088;-45
2023/07/09 00:14:13;;;;;;;;;;;27.10;60.40;;;;;;4013006;29;19931;-50
2023/07/09 00:16:54;;;;;;;;;;;27.10;60.30;;;;;;4012723;29;19990;-48
2023/07/09 00:19:34;;;;;;;;;;;27.00;60.30;;;;;;4012405;29;19935;-48
2023/07/09 00:22:17;;;;;;;;;;;27.00;60.60;;;;;;4012872;29;20057;-49
2023/07/09 00:24:59;;;;;;;;;;;27.00;60.70;;;;;;3997188;29;19960;-47
2023/07/09 00:27:40;;;;;;;;;;;27.00;60.70;;;;;;4011174;29;19934;-43
2023/07/09 00:30:22;;;;;;;;;;;27.00;60.70;;;;;;4012606;29;20002;-44
2023/07/09 00:33:04;;;;;;;;;;;27.00;60.80;;;;;;4012852;29;19930;-45
2023/07/09 00:35:46;;;;;;;;;;;27.00;60.90;;;;;;4012551;29;20400;-45
2023/07/09 00:38:27;;;;;;;;;;;27.00;61.00;;;;;;4000949;29;19931;-44
2023/07/09 00:41:17;;;;;;;;;;;27.00;61.80;;;;;;3996659;29;20412;-48
2023/07/09 00:43:58;;;;;;;;;;;26.90;60.90;;;;;;3986099;29;20064;-43
2023/07/09 00:47:00;;;;;;;;;;;26.90;61.00;;;;;;3997168;29;20077;-47
2023/07/09 00:49:46;;;;;;;;;;;26.90;61.00;;;;;;3984993;29;19976;-43
2023/07/09 00:52:32;;;;;;;;;;;26.90;61.10;;;;;;3997037;29;19999;-46
2023/07/09 00:55:14;;;;;;;;;;;26.90;61.30;;;;;;3996732;29;19936;-45
2023/07/09 00:57:59;;;;;;;;;;;26.90;61.20;;;;;;4011049;29;19931;-44
2023/07/09 01:00:46;;;;;;;;;;;26.90;61.50;;;;;;4001059;29;19935;-43
2023/07/09 01:03:29;;;;;;;;;;;26.90;61.60;;;;;;4011352;29;19930;-50
2023/07/09 01:06:11;;;;;;;;;;;26.80;61.60;;;;;;4011633;29;19979;-46
2023/07/09 01:08:53;;;;;;;;;;;26.80;61.60;;;;;;4012060;29;19934;-45
2023/07/09 01:11:37;;;;;;;;;;;26.80;61.60;;;;;;4000993;29;19935;-45
2023/07/09 01:14:21;;;;;;;;;;;26.80;61.70;;;;;;3988889;29;19931;-45
2023/07/09 01:17:05;;;;;;;;;;;26.80;61.70;;;;;;4012035;29;19967;-47
2023/07/09 01:19:50;;;;;;;;;;;26.80;61.80;;;;;;4012233;29;19930;-46
2023/07/09 01:22:33;;;;;;;;;;;26.80;61.80;;;;;;3996647;29;19949;-46
2023/07/09 01:25:14;;;;;;;;;;;26.70;61.70;;;;;;3996861;29;19932;-48
2023/07/09 01:27:55;;;;;;;;;;;26.80;61.80;;;;;;4007568;29;20356;-45
2023/07/09 01:30:39;;;;;;;;;;;26.70;62.50;;;;;;3999257;29;20406;-48
2023/07/09 01:33:20;;;;;;;;;;;26.70;61.70;;;;;;3985599;29;19936;-44
2023/07/09 01:36:03;;;;;;;;;;;26.70;61.20;;;;;;3975529;29;20388;-43
2023/07/09 01:38:45;;;;;;;;;;;26.70;61.10;;;;;;3998098;29;20008;-47
2023/07/09 01:41:26;;;;;;;;;;;26.70;61.50;;;;;;4000393;29;19931;-45
2023/07/09 01:44:07;;;;;;;;;;;26.70;61.80;;;;;;3975053;29;19934;-47
2023/07/09 01:46:48;;;;;;;;;;;26.70;61.90;;;;;;3996794;29;19935;-44
2023/07/09 01:49:29;;;;;;;;;;;26.70;61.90;;;;;;3996447;29;19935;-47
2023/07/09 01:52:12;;;;;;;;;;;26.60;61.80;;;;;;3997208;29;20391;-44
2023/07/09 01:54:54;;;;;;;;;;;26.60;61.70;;;;;;3999045;29;20391;-45
2023/07/09 01:57:35;;;;;;;;;;;26.60;61.80;;;;;;4001799;29;19951;-45
2023/07/09 02:00:17;;;;;;;;;;;26.60;61.80;;;;;;4001272;29;19975;-45
2023/07/09 02:03:02;;;;;;;;;;;26.60;62.00;;;;;;4002850;29;20399;-47
2023/07/09 02:05:42;;;;;;;;;;;26.60;61.90;;;;;;4002928;29;19996;-45
2023/07/09 02:08:23;;;;;;;;;;;26.60;62.40;;;;;;4002819;29;20015;-45
2023/07/09 02:11:05;;;;;;;;;;;26.50;61.20;;;;;;3988197;29;19935;-49
2023/07/09 02:13:46;;;;;;;;;;;26.50;60.90;;;;;;4010377;29;19931;-46
2023/07/09 02:16:27;;;;;;;;;;;26.50;61.10;;;;;;4003017;29;20035;-47
2023/07/09 02:19:08;;;;;;;;;;;26.50;61.30;;;;;;4012990;29;19931;-46
2023/07/09 02:21:48;;;;;;;;;;;26.50;61.60;;;;;;4013768;29;20300;-44
2023/07/09 02:24:29;;;;;;;;;;;26.50;62.00;;;;;;4014397;29;19947;-44
2023/07/09 02:27:11;;;;;;;;;;;26.50;62.10;;;;;;4014289;29;20060;-45
2023/07/09 02:29:52;;;;;;;;;;;26.40;62.00;;;;;;4013819;29;19934;-48
2023/07/09 02:32:32;;;;;;;;;;;26.40;62.10;;;;;;4014241;29;20031;-47
2023/07/09 02:35:13;;;;;;;;;;;26.40;62.10;;;;;;4012783;29;19934;-45
2023/07/09 02:37:54;;;;;;;;;;;26.40;62.20;;;;;;4002693;29;19931;-45
2023/07/09 02:40:35;;;;;;;;;;;26.40;62.30;;;;;;4002584;29;20063;-45
2023/07/09 02:43:18;;;;;;;;;;;26.40;62.30;;;;;;3999045;29;19980;-47
2023/07/09 02:45:58;;;;;;;;;;;26.40;62.30;;;;;;3998459;29;20034;-45
2023/07/09 02:48:39;;;;;;;;;;;26.40;62.20;;;;;;3999003;29;19931;-47
2023/07/09 02:51:19;;;;;;;;;;;26.40;62.10;;;;;;3998064;29;19935;-47
2023/07/09 02:54:01;;;;;;;;;;;26.40;62.20;;;;;;3987688;29;19931;-47
2023/07/09 02:56:42;;;;;;;;;;;26.30;61.90;;;;;;3987348;29;19935;-48
2023/07/09 02:59:26;;;;;;;;;;;26.30;62.10;;;;;;3987271;29;19931;-46
2023/07/09 03:02:07;;;;;;;;;;;26.30;62.30;;;;;;3997384;29;19932;-45
2023/07/09 03:04:47;;;;;;;;;;;26.30;62.40;;;;;;3998327;29;20295;-45
2023/07/09 03:07:28;;;;;;;;;;;26.30;63.30;;;;;;4001933;29;19970;-47
2023/07/09 03:10:09;;;;;;;;;;;26.20;62.30;;;;;;4013753;29;19935;-46
2023/07/09 03:12:50;;;;;;;;;;;26.20;62.30;;;;;;3989768;29;20028;-44
2023/07/09 03:15:32;;;;;;;;;;;26.20;62.30;;;;;;4002740;29;20419;-46
2023/07/09 03:18:13;;;;;;;;;;;26.20;62.40;;;;;;4002432;29;20398;-43
2023/07/09 03:20:54;;;;;;;;;;;26.20;62.40;;;;;;4002706;29;19931;-45
2023/07/09 03:23:35;;;;;;;;;;;26.20;62.40;;;;;;4001539;29;19935;-48
2023/07/09 03:26:15;;;;;;;;;;;26.10;62.40;;;;;;4002239;29;19931;-45
2023/07/09 03:28:56;;;;;;;;;;;26.10;62.40;;;;;;4001204;29;19935;-47
2023/07/09 03:31:38;;;;;;;;;;;26.10;62.30;;;;;;4011887;29;19931;-46
2023/07/09 03:34:19;;;;;;;;;;;26.10;63.30;;;;;;4013608;29;19932;-47
2023/07/09 03:37:00;;;;;;;;;;;26.10;62.40;;;;;;4012780;29;20024;-45
2023/07/09 03:39:40;;;;;;;;;;;26.10;62.40;;;;;;4012811;29;20296;-50
2023/07/09 03:42:21;;;;;;;;;;;26.10;62.50;;;;;;4013224;29;19991;-46
2023/07/09 03:45:02;;;;;;;;;;;26.10;62.50;;;;;;4012573;29;20754;-48
2023/07/09 03:47:45;;;;;;;;;;;26.00;62.50;;;;;;4013001;29;19932;-46
2023/07/09 03:50:26;;;;;;;;;;;26.00;62.40;;;;;;4012951;29;19935;-44
2023/07/09 03:53:06;;;;;;;;;;;26.00;62.40;;;;;;4013470;29;19946;-45
2023/07/09 03:55:52;;;;;;;;;;;26.00;62.40;;;;;;4002120;29;19935;-43
2023/07/09 03:58:32;;;;;;;;;;;26.00;62.40;;;;;;4012891;29;19983;-43
2023/07/09 04:01:13;;;;;;;;;;;26.00;62.40;;;;;;4012041;29;19950;-45
2023/07/09 04:03:55;;;;;;;;;;;26.00;62.50;;;;;;4005486;29;19931;-44
2023/07/09 04:06:36;;;;;;;;;;;26.00;62.50;;;;;;3997651;29;19936;-44
2023/07/09 04:09:17;;;;;;;;;;;26.00;62.50;;;;;;3985994;29;20386;-48
2023/07/09 04:11:57;;;;;;;;;;;25.90;62.50;;;;;;3997376;29;20039;-43
2023/07/09 04:14:38;;;;;;;;;;;25.90;62.50;;;;;;3997799;29;19935;-45
2023/07/09 04:17:19;;;;;;;;;;;25.90;62.50;;;;;;3999183;29;19935;-43
2023/07/09 04:20:05;;;;;;;;;;;25.90;62.40;;;;;;4005243;29;19931;-42
2023/07/09 04:22:46;;;;;;;;;;;25.90;62.50;;;;;;4013053;29;19988;-44
2023/07/09 04:25:27;;;;;;;;;;;25.90;62.50;;;;;;4001612;29;19931;-51
2023/07/09 04:28:08;;;;;;;;;;;25.90;62.50;;;;;;4011664;29;19980;-45
2023/07/09 04:30:50;;;;;;;;;;;25.90;62.60;;;;;;4001377;29;19931;-47
2023/07/09 04:33:31;;;;;;;;;;;25.90;62.70;;;;;;4011646;29;20385;-45
2023/07/09 04:36:13;;;;;;;;;;;25.90;62.70;;;;;;4012558;29;19931;-47
2023/07/09 04:38:54;;;;;;;;;;;25.90;63.60;;;;;;4001248;29;19950;-47
2023/07/09 04:41:35;;;;;;;;;;;25.90;62.70;;;;;;4011994;29;19991;-50
2023/07/09 04:44:16;;;;;;;;;;;25.90;62.70;;;;;;4012364;29;19951;-50
2023/07/09 04:46:57;;;;;;;;;;;25.90;63.50;;;;;;4011476;29;19935;-49
2023/07/09 04:49:38;;;;;;;;;;;25.90;62.50;;;;;;4009887;29;19939;-47
2023/07/09 04:52:22;;;;;;;;;;;25.90;62.50;;;;;;3997371;29;20284;-47
2023/07/09 04:55:02;;;;;;;;;;;25.90;62.50;;;;;;3986270;29;19932;-49
2023/07/09 04:57:43;;;;;;;;;;;25.90;62.50;;;;;;3999059;29;19935;-50
2023/07/09 05:00:23;;;;;;;;;;;25.90;62.50;;;;;;4011606;29;20061;-45
2023/07/09 05:03:04;;;;;;;;;;;25.90;62.50;;;;;;4010270;29;19935;-47
2023/07/09 05:05:45;;;;;;;;;;;25.90;62.40;;;;;;4010521;29;19931;-48
2023/07/09 05:08:28;;;;;;;;;;;25.90;62.50;;;;;;3996890;29;20714;-44
2023/07/09 05:11:10;;;;;;;;;;;25.90;62.50;;;;;;3996566;29;19935;-48
2023/07/09 05:13:51;;;;;;;;;;;25.90;62.40;;;;;;3996811;29;19935;-45
2023/07/09 05:16:33;;;;;;;;;;;25.90;62.40;;;;;;4007555;29;19931;-44
2023/07/09 05:19:14;;;;;;;;;;;25.90;63.30;;;;;;4012282;29;19934;-49
2023/07/09 05:21:55;;;;;;;;;;;25.90;62.40;;;;;;4012599;29;19934;-43
2023/07/09 05:24:37;;;;;;;;;;;25.90;62.40;;;;;;4012060;29;19935;-45
2023/07/09 05:27:18;;;;;;;;;;;25.90;62.50;;;;;;4011656;29;19932;-46
2023/07/09 05:30:00;;;;;;;;;;;25.90;62.50;;;;;;4014529;29;19939;-46
2023/07/09 05:32:41;;;;;;;;;;;25.90;62.40;;;;;;4014902;29;20277;-47
2023/07/09 05:35:22;;;;;;;;;;;25.90;62.40;;;;;;4014943;29;19935;-47
2023/07/09 05:38:03;;;;;;;;;;;25.90;62.50;;;;;;4012228;29;19931;-46
2023/07/09 05:40:45;;;;;;;;;;;26.00;62.70;;;;;;4001201;29;20261;-46
2023/07/09 05:43:26;;;;;;;;;;;26.00;62.70;;;;;;4009594;29;20276;-45
2023/07/09 05:46:06;;;;;;;;;;;26.00;62.70;;;;;;4012539;29;20466;-46
2023/07/09 05:48:47;;;;;;;;;;;26.00;62.60;;;;;;4024570;29;19931;-50
2023/07/09 05:51:29;;;;;;;;;;;26.00;62.50;;;;;;4017763;29;20023;-48
2023/07/09 05:54:11;;;;;;;;;;;25.90;62.40;;;;;;4015304;29;20387;-46
2023/07/09 05:56:53;;;;;;;;;;;26.00;62.50;;;;;;4000391;29;19934;-45
2023/07/09 05:59:34;;;;;;;;;;;26.00;62.50;;;;;;4014025;29;20679;-52
2023/07/09 06:02:16;;;;;;;;;;;26.00;62.50;;;;;;4012798;29;20353;-52
2023/07/09 06:04:58;;;;;;;;;;;26.00;62.50;;;;;;4014957;29;19997;-52
2023/07/09 06:07:39;;;;;;;;;;;26.00;62.50;;;;;;4014175;29;19988;-48
2023/07/09 06:10:21;;;;;;;;;;;26.10;62.60;;;;;;4014295;29;19931;-52
2023/07/09 06:13:03;;;;;;;;;;;26.10;62.60;;;;;;4014187;29;20655;-51
2023/07/09 06:15:44;;;;;;;;;;;26.10;62.60;;;;;;4014322;29;19935;-48
2023/07/09 06:18:28;;;;;;;;;;;26.10;62.50;;;;;;4014756;29;19948;-47
2023/07/09 06:21:11;;;;;;;;;;;26.10;62.50;;;;;;4014292;29;20366;-53
2023/07/09 06:23:52;;;;;;;;;;;26.10;62.50;;;;;;4014475;29;19990;-50
2023/07/09 06:26:33;;;;;;;;;;;26.10;62.50;;;;;;4013631;29;19978;-51
2023/07/09 06:29:15;;;;;;;;;;;26.10;62.50;;;;;;4009551;29;20299;-52
2023/07/09 06:31:56;;;;;;;;;;;26.10;62.50;;;;;;4013426;29;20031;-50
2023/07/09 06:34:37;;;;;;;;;;;26.10;62.50;;;;;;4013261;29;19931;-51
2023/07/09 06:37:17;;;;;;;;;;;26.10;62.60;;;;;;4013985;29;20394;-49
2023/07/09 06:39:58;;;;;;;;;;;26.10;63.50;;;;;;4014025;29;20668;-49
2023/07/09 06:42:39;;;;;;;;;;;26.10;62.70;;;;;;4014074;29;20019;-53
2023/07/09 06:45:34;;;;;;;;;;;26.20;62.80;;;;;;4001561;29;20395;-51
2023/07/09 06:48:15;;;;;;;;;;;26.20;62.80;;;;;;4014196;29;20404;-48
2023/07/09 06:50:56;;;;;;;;;;;26.20;62.80;;;;;;4013545;29;20292;-49
2023/07/09 06:53:37;;;;;;;;;;;26.30;62.80;;;;;;4022526;29;19935;-50
2023/07/09 06:56:18;;;;;;;;;;;26.40;62.80;;;;;;4011070;29;19931;-49
2023/07/09 06:59:00;;;;;;;;;;;26.40;63.50;;;;;;3998410;29;20020;-53
2023/07/09 07:01:42;;;;;;;;;;;26.40;62.60;;;;;;4005397;29;19980;-51
2023/07/09 07:04:23;;;;;;;;;;;26.60;62.60;;;;;;4009509;29;19930;-54
2023/07/09 07:07:04;;;;;;;;;;;26.60;62.30;;;;;;4008660;29;19994;-54
2023/07/09 07:09:45;;;;;;;;;;;26.60;62.20;;;;;;4008290;29;19935;-54
2023/07/09 07:12:26;;;;;;;;;;;26.70;62.10;;;;;;4013279;29;19967;-52
2023/07/09 07:15:07;;;;;;;;;;;26.70;62.00;;;;;;4013262;29;20407;-47
2023/07/09 07:17:49;;;;;;;;;;;26.80;62.00;;;;;;4012626;29;19935;-52
2023/07/09 07:20:30;;;;;;;;;;;26.80;61.80;;;;;;3997387;29;19931;-54
2023/07/09 07:23:11;;;;;;;;;;;26.90;61.70;;;;;;4010574;29;20040;-53
2023/07/09 07:25:52;;;;;;;;;;;26.90;61.60;;;;;;4013423;29;19942;-48
2023/07/09 07:28:35;;;;;;;;;;;26.90;61.50;;;;;;4012807;29;19939;-47
2023/07/09 07:31:16;;;;;;;;;;;27.00;61.50;;;;;;4013106;29;19956;-52
2023/07/09 07:33:59;;;;;;;;;;;27.00;61.40;;;;;;4000958;29;19939;-50
2023/07/09 07:36:40;;;;;;;;;;;27.00;61.30;;;;;;4013606;29;20332;-53
2023/07/09 07:39:23;;;;;;;;;;;27.10;62.30;;;;;;4013289;29;19931;-49
2023/07/09 07:42:04;;;;;;;;;;;27.10;61.20;;;;;;4013144;29;19935;-46
2023/07/09 07:44:47;;;;;;;;;;;27.20;61.20;;;;;;4002255;29;20004;-47
2023/07/09 07:47:28;;;;;;;;;;;27.20;61.10;;;;;;3973059;29;19932;-44
2023/07/09 07:50:10;;;;;;;;;;;27.20;61.00;;;;;;4005766;29;19949;-54
2023/07/09 07:52:51;;;;;;;;;;;27.20;61.20;;;;;;4009083;29;19931;-51
2023/07/09 07:55:32;;;;;;;;;;;27.30;61.10;;;;;;4010965;29;19935;-53
2023/07/09 07:58:13;;;;;;;;;;;27.30;61.20;;;;;;4008345;29;20535;-46
2023/07/09 08:00:56;;;;;;;;;;;27.30;61.20;;;;;;3990344;29;19934;-46
2023/07/09 08:03:37;;;;;;;;;;;27.30;61.20;;;;;;4010999;29;20318;-49
2023/07/09 08:06:19;;;;;;;;;;;27.30;61.40;;;;;;3985565;29;19983;-50
2023/07/09 08:09:00;;;;;;;;;;;27.30;61.50;;;;;;3997007;29;19935;-51
2023/07/09 08:11:42;;;;;;;;;;;27.30;61.80;;;;;;3997489;29;19935;-52
2023/07/09 08:14:22;;;;;;;;;;;27.30;61.90;;;;;;3984817;29;20007;-50
2023/07/09 08:17:04;;;;;;;;;;;27.30;61.90;;;;;;4007383;29;19935;-48
2023/07/09 08:19:46;;;;;;;;;;;27.40;61.90;;;;;;3990479;29;20300;-51
2023/07/09 08:22:28;;;;;;;;;;;27.40;61.90;;;;;;3996567;29;19935;-54
2023/07/09 08:25:09;;;;;;;;;;;27.40;62.00;;;;;;4010673;29;19934;-45
2023/07/09 08:27:50;;;;;;;;;;;27.40;62.00;;;;;;4012568;29;19947;-50
2023/07/09 08:30:31;;;;;;;;;;;27.50;61.90;;;;;;4012699;29;20076;-49
2023/07/09 08:33:12;;;;;;;;;;;27.50;61.80;;;;;;4011919;29;19951;-47
2023/07/09 08:35:53;;;;;;;;;;;27.50;62.60;;;;;;3996017;29;19931;-47
2023/07/09 08:38:37;;;;;;;;;;;27.60;61.70;;;;;;3993779;29;20288;-44
2023/07/09 08:41:26;;;;;;;;;;;27.60;61.70;;;;;;3983587;29;20026;-46
2023/07/09 08:44:12;;;;;;;;;;;27.60;61.70;;;;;;4010660;29;20068;-45
2023/07/09 08:47:00;;;;;;;;;;;27.60;61.50;;;;;;3996747;29;19932;-45
2023/07/09 08:49:44;;;;;;;;;;;27.70;61.50;;;;;;3996780;29;19935;-44
2023/07/09 08:52:26;;;;;;;;;;;27.70;61.50;;;;;;3997334;29;19931;-43
2023/07/09 08:55:12;;;;;;;;;;;27.70;61.50;;;;;;3997104;29;19985;-47
2023/07/09 08:57:55;;;;;;;;;;;27.70;61.30;;;;;;4008734;29;20071;-46
2023/07/09 09:00:41;;;;;;;;;;;27.70;61.30;;;;;;4012371;29;20019;-47
2023/07/09 09:03:29;;;;;;;;;;;27.80;61.30;;;;;;3996750;29;19935;-43
2023/07/09 09:06:11;;;;;;;;;;;27.80;61.30;;;;;;3996702;29;20012;-45
2023/07/09 09:08:56;;;;;;;;;;;27.80;61.30;;;;;;4007643;29;20015;-42
2023/07/09 09:11:44;;;;;;;;;;;27.90;62.20;;;;;;4006796;29;20470;-44
2023/07/09 09:14:28;;;;;;;;;;;27.90;61.30;;;;;;3985911;29;20061;-45
2023/07/09 09:17:11;;;;;;;;;;;27.90;61.30;;;;;;3996547;29;19935;-46
2023/07/09 09:19:55;;;;;;;;;;;27.90;61.20;;;;;;3996883;29;19935;-48
2023/07/09 09:22:41;;;;;;;;;;;28.00;61.20;;;;;;3997222;29;19941;-45
2023/07/09 09:25:24;;;;;;;;;;;28.10;61.20;;;;;;3997234;29;20711;-47
2023/07/09 09:28:06;;;;;;;;;;;28.10;61.20;;;;;;4008207;29;20015;-47
2023/07/09 09:30:47;;;;;;;;;;;28.10;61.10;;;;;;4003910;29;19947;-43
2023/07/09 09:33:37;;;;;;;;;;;28.20;61.20;;;;;;3999708;29;20328;-45
2023/07/09 09:36:20;;;;;;;;;;;28.20;61.10;;;;;;4011159;29;20387;-44
2023/07/09 09:39:02;;;;;;;;;;;28.20;61.20;;;;;;4012047;29;19934;-47
2023/07/09 09:41:45;;;;;;;;;;;28.20;61.10;;;;;;4011558;29;19932;-47
2023/07/09 09:44:30;;;;;;;;;;;28.30;61.10;;;;;;4012239;29;19935;-45
2023/07/09 09:47:11;;;;;;;;;;;28.30;61.10;;;;;;4002129;29;19935;-46
2023/07/09 09:49:53;;;;;;;;;;;28.40;61.00;;;;;;4010425;29;19931;-46
2023/07/09 09:52:34;;;;;;;;;;;28.40;61.00;;;;;;4002711;29;19992;-43
2023/07/09 09:55:18;;;;;;;;;;;28.40;60.80;;;;;;4010776;29;19935;-48
2023/07/09 09:57:59;;;;;;;;;;;28.50;61.10;;;;;;3995508;29;20635;-47
2023/07/09 10:00:41;;;;;;;;;;;28.50;61.30;;;;;;4009927;29;19956;-43
2023/07/09 10:03:22;;;;;;;;;;;28.50;62.40;;;;;;3999695;29;19936;-51
2023/07/09 10:06:06;;;;;;;;;;;28.60;61.50;;;;;;3997844;29;20069;-50
2023/07/09 10:08:57;;;;;;;;;;;28.60;61.40;;;;;;4010027;29;19947;-53
2023/07/09 10:11:43;;;;;;;;;;;28.60;61.30;;;;;;4012145;29;19950;-51
2023/07/09 10:14:32;;;;;;;;;;;28.70;62.40;;;;;;4011231;29;19935;-53
2023/07/09 10:17:20;;;;;;;;;;;28.70;61.50;;;;;;4001912;29;19934;-52
2023/07/09 10:20:08;;;;;;;;;;;28.80;61.50;;;;;;4014362;29;20118;-52
2023/07/09 10:22:53;;;;;;;;;;;28.80;61.80;;;;;;4013120;29;19947;-53
2023/07/09 10:25:38;;;;;;;;;;;28.80;61.50;;;;;;4005226;29;19931;-52
2023/07/09 10:28:31;;;;;;;;;;;28.80;61.70;;;;;;4015026;29;19934;-52
2023/07/09 10:31:16;;;;;;;;;;;28.90;61.60;;;;;;4013685;29;19975;-53
2023/07/09 10:34:02;;;;;;;;;;;28.90;61.40;;;;;;4013869;29;20346;-54
2023/07/09 10:36:49;;;;;;;;;;;28.90;61.70;;;;;;4013832;29;20011;-47
2023/07/09 10:39:33;;;;;;;;;;;28.90;61.80;;;;;;4013337;29;19979;-49
2023/07/09 10:42:17;;;;;;;;;;;29.00;61.60;;;;;;4013371;29;19939;-43
2023/07/09 10:45:01;;;;;;;;;;;29.00;61.40;;;;;;4013260;29;19935;-43
2023/07/09 10:47:44;;;;;;;;;;;29.00;61.30;;;;;;4013846;29;19931;-43
2023/07/09 10:50:29;;;;;;;;;;;29.00;61.50;;;;;;4013657;29;20308;-43
2023/07/09 10:53:13;;;;;;;;;;;29.10;62.30;;;;;;4013548;29;19999;-45
2023/07/09 10:55:55;;;;;;;;;;;29.10;61.10;;;;;;4013281;29;19935;-48
2023/07/09 10:58:40;;;;;;;;;;;29.10;61.00;;;;;;4001881;29;19931;-44
2023/07/09 11:01:25;;;;;;;;;;;29.10;60.90;;;;;;4002885;29;19930;-43
2023/07/09 11:04:09;;;;;;;;;;;29.10;60.80;;;;;;4014053;29;20075;-43
2023/07/09 11:06:53;;;;;;;;;;;29.20;60.70;;;;;;4003623;29;20300;-48
2023/07/09 11:09:35;;;;;;;;;;;29.20;61.50;;;;;;3998041;29;19935;-47
2023/07/09 11:12:18;;;;;;;;;;;29.20;60.40;;;;;;3998673;29;19935;-45
2023/07/09 11:15:01;;;;;;;;;;;29.20;60.80;;;;;;4013766;29;20296;-47
2023/07/09 11:17:44;;;;;;;;;;;29.30;60.90;;;;;;4012860;29;19935;-44
2023/07/09 11:20:26;;;;;;;;;;;29.30;60.80;;;;;;4001683;29;19935;-45
2023/07/09 11:23:18;;;;;;;;;;;29.30;61.00;;;;;;4000726;29;19935;-48
2023/07/09 11:26:04;;;;;;;;;;;29.30;60.80;;;;;;4011412;29;19939;-43
2023/07/09 11:28:47;;;;;;;;;;;29.40;61.10;;;;;;4007513;29;20395;-44
2023/07/09 11:31:34;;;;;;;;;;;29.40;60.90;;;;;;4011915;29;19935;-47
2023/07/09 11:34:18;;;;;;;;;;;29.40;61.30;;;;;;4010268;29;20328;-48
2023/07/09 11:37:00;;;;;;;;;;;29.40;61.10;;;;;;4013113;29;20064;-42
2023/07/09 11:39:46;;;;;;;;;;;29.50;61.10;;;;;;4013261;29;20292;-47
2023/07/09 11:42:28;;;;;;;;;;;29.50;61.10;;;;;;3998722;29;20340;-47
2023/07/09 11:45:10;;;;;;;;;;;29.50;61.10;;;;;;4018506;29;20064;-43
2023/07/09 11:47:54;;;;;;;;;;;29.50;61.10;;;;;;4012750;29;19963;-48
2023/07/09 11:50:40;;;;;;;;;;;29.50;61.00;;;;;;4013098;29;20374;-46
2023/07/09 11:53:26;;;;;;;;;;;29.60;61.10;;;;;;4012839;29;20788;-53
2023/07/09 11:56:09;;;;;;;;;;;29.60;61.00;;;;;;4012350;29;20011;-46
2023/07/09 11:58:51;;;;;;;;;;;29.60;60.90;;;;;;4012624;29;19950;-46
2023/07/09 12:01:39;;;;;;;;;;;29.60;60.70;;;;;;4003982;29;19943;-51
2023/07/09 12:04:21;;;;;;;;;;;29.60;60.60;;;;;;4012675;29;19940;-49
2023/07/09 12:07:05;;;;;;;;;;;29.60;60.60;;;;;;4009549;29;20013;-50
2023/07/09 12:09:49;;;;;;;;;;;29.60;60.30;;;;;;4012454;29;19931;-47
2023/07/09 12:12:31;;;;;;;;;;;29.70;60.30;;;;;;4011984;29;20038;-50
2023/07/09 12:15:16;;;;;;;;;;;29.70;60.20;;;;;;4012205;29;20407;-45
2023/07/09 12:17:58;;;;;;;;;;;29.70;60.20;;;;;;4012374;29;20395;-46
2023/07/09 12:20:39;;;;;;;;;;;29.80;60.20;;;;;;4012335;29;19930;-53
2023/07/09 12:23:22;;;;;;;;;;;29.80;60.20;;;;;;4012287;29;20010;-51
2023/07/09 12:26:07;;;;;;;;;;;29.80;60.10;;;;;;4012538;29;20280;-53
2023/07/09 12:28:52;;;;;;;;;;;29.80;60.10;;;;;;4011863;29;19938;-47
2023/07/09 12:31:33;;;;;;;;;;;29.90;60.10;;;;;;4012288;29;20401;-47
2023/07/09 12:34:15;;;;;;;;;;;29.90;60.10;;;;;;4012896;29;19931;-47
2023/07/09 12:36:56;;;;;;;;;;;29.90;60.20;;;;;;4011685;29;19935;-47
2023/07/09 12:39:38;;;;;;;;;;;30.00;60.90;;;;;;4011409;29;19935;-45
2023/07/09 12:42:20;;;;;;;;;;;30.00;59.90;;;;;;4011880;29;19931;-45
2023/07/09 12:45:02;;;;;;;;;;;30.00;59.90;;;;;;4010154;29;19934;-46
2023/07/09 12:47:44;;;;;;;;;;;30.00;59.80;;;;;;4010930;29;19979;-47
2023/07/09 12:50:30;;;;;;;;;;;30.00;59.80;;;;;;4012416;29;20115;-45
2023/07/09 12:53:14;;;;;;;;;;;30.10;59.80;;;;;;4011937;29;19932;-48
2023/07/09 12:55:56;;;;;;;;;;;30.10;59.70;;;;;;4011862;29;19935;-45
2023/07/09 12:58:38;;;;;;;;;;;30.20;60.50;;;;;;4012204;29;19934;-45
2023/07/09 13:01:20;;;;;;;;;;;30.20;59.50;;;;;;4012609;29;20072;-45
2023/07/09 13:04:02;;;;;;;;;;;30.20;59.50;;;;;;4011747;29;20020;-44
2023/07/09 13:06:43;;;;;;;;;;;30.20;59.80;;;;;;3998591;29;20022;-44
2023/07/09 13:09:24;;;;;;;;;;;30.30;60.30;;;;;;4010367;29;19935;-44
2023/07/09 13:12:05;;;;;;;;;;;30.30;60.50;;;;;;4010217;29;19956;-44
2023/07/09 13:14:53;;;;;;;;;;;30.30;60.60;;;;;;4010633;29;19960;-47
2023/07/09 13:17:35;;;;;;;;;;;30.30;60.60;;;;;;4010996;29;20060;-46
2023/07/09 13:20:16;;;;;;;;;;;30.30;60.40;;;;;;4011285;29;19983;-44
2023/07/09 13:22:57;;;;;;;;;;;30.30;60.30;;;;;;3996624;29;19940;-44
2023/07/09 13:25:39;;;;;;;;;;;30.30;60.30;;;;;;3995359;29;20043;-44
2023/07/09 13:28:27;;;;;;;;;;;30.40;60.70;;;;;;4004211;29;19931;-43
2023/07/09 13:31:11;;;;;;;;;;;30.40;61.00;;;;;;4010433;29;19947;-47
2023/07/09 13:33:57;;;;;;;;;;;30.40;61.10;;;;;;4011066;29;19931;-48
2023/07/09 13:36:38;;;;;;;;;;;30.40;61.10;;;;;;4011524;29;19935;-50
2023/07/09 13:39:19;;;;;;;;;;;30.40;61.30;;;;;;4011940;29;19931;-49
2023/07/09 13:41:59;;;;;;;;;;;30.40;61.30;;;;;;4012141;29;20702;-50
2023/07/09 13:44:41;;;;;;;;;;;30.40;61.50;;;;;;4011243;29;19959;-49
2023/07/09 13:47:22;;;;;;;;;;;30.50;61.90;;;;;;4011474;29;20375;-50
2023/07/09 13:50:05;;;;;;;;;;;30.40;61.90;;;;;;4013146;29;19931;-48
2023/07/09 13:52:46;;;;;;;;;;;30.40;61.80;;;;;;4014934;29;20384;-48
2023/07/09 13:55:26;;;;;;;;;;;30.40;62.00;;;;;;4014784;29;19931;-48
2023/07/09 13:58:09;;;;;;;;;;;30.40;62.00;;;;;;3999259;29;20003;-52
2023/07/09 14:00:50;;;;;;;;;;;30.40;62.10;;;;;;3999517;29;20019;-50
2023/07/09 14:03:32;;;;;;;;;;;30.50;62.30;;;;;;3999659;29;19968;-52
2023/07/09 14:06:15;;;;;;;;;;;30.50;62.40;;;;;;4009188;29;20332;-50
2023/07/09 14:08:56;;;;;;;;;;;30.50;62.30;;;;;;4014510;29;19947;-50
2023/07/09 14:11:39;;;;;;;;;;;30.50;62.30;;;;;;4014213;29;19956;-51
2023/07/09 14:14:21;;;;;;;;;;;30.50;62.40;;;;;;4014287;29;19931;-50
2023/07/09 14:17:02;;;;;;;;;;;30.50;63.00;;;;;;4007782;29;19934;-52
2023/07/09 14:19:43;;;;;;;;;;;30.60;62.20;;;;;;4014209;29;20036;-47
2023/07/09 14:22:28;;;;;;;;;;;30.60;62.10;;;;;;4014049;29;20036;-51
2023/07/09 14:25:15;;;;;;;;;;;30.60;62.80;;;;;;4013950;29;19935;-52
2023/07/09 14:27:56;;;;;;;;;;;30.60;61.90;;;;;;4012292;29;20506;-51
2023/07/09 14:30:36;;;;;;;;;;;30.70;61.80;;;;;;4014000;29;19934;-51
2023/07/09 14:33:18;;;;;;;;;;;30.70;61.50;;;;;;4014405;29;20387;-49
2023/07/09 14:35:59;;;;;;;;;;;30.70;62.30;;;;;;4002532;29;19931;-50
2023/07/09 14:38:41;;;;;;;;;;;30.70;60.90;;;;;;4013738;29;20064;-54
2023/07/09 14:41:23;;;;;;;;;;;30.70;60.90;;;;;;4013828;29;20144;-49
2023/07/09 14:44:06;;;;;;;;;;;30.70;60.90;;;;;;4010390;29;19931;-53
2023/07/09 14:46:47;;;;;;;;;;;30.70;60.90;;;;;;4001799;29;19930;-48
2023/07/09 14:49:28;;;;;;;;;;;30.70;60.90;;;;;;4013764;29;19942;-51
2023/07/09 14:52:12;;;;;;;;;;;30.70;60.90;;;;;;3998341;29;19935;-53
2023/07/09 14:54:54;;;;;;;;;;;30.70;60.90;;;;;;3998527;29;19935;-49
2023/07/09 14:57:36;;;;;;;;;;;30.70;60.90;;;;;;3997670;29;20288;-49
2023/07/09 15:00:18;;;;;;;;;;;30.70;61.00;;;;;;4012193;29;19935;-50
2023/07/09 15:02:58;;;;;;;;;;;30.70;61.10;;;;;;4012670;29;19931;-53
2023/07/09 15:05:40;;;;;;;;;;;30.60;61.20;;;;;;4013115;29;19934;-53
2023/07/09 15:08:22;;;;;;;;;;;30.60;61.10;;;;;;4013574;29;19935;-50
2023/07/09 15:11:04;;;;;;;;;;;30.60;61.00;;;;;;4011786;29;20003;-47
2023/07/09 15:13:46;;;;;;;;;;;30.60;61.20;;;;;;4012571;29;19935;-48
2023/07/09 15:16:26;;;;;;;;;;;30.50;61.30;;;;;;4012519;29;19944;-48
2023/07/09 15:19:10;;;;;;;;;;;30.50;61.50;;;;;;4011843;29;19950;-48
2023/07/09 15:21:51;;;;;;;;;;;30.50;62.70;;;;;;4011668;29;19958;-47
2023/07/09 15:24:33;;;;;;;;;;;30.40;61.80;;;;;;4011435;29;19931;-48
2023/07/09 15:27:15;;;;;;;;;;;30.40;61.90;;;;;;4004197;29;20030;-47
2023/07/09 15:29:56;;;;;;;;;;;30.40;62.50;;;;;;4012789;29;20398;-50
2023/07/09 15:32:37;;;;;;;;;;;30.30;61.50;;;;;;4002142;29;19931;-47
2023/07/09 15:35:19;;;;;;;;;;;30.20;61.50;;;;;;3998880;29;20053;-50
2023/07/09 15:37:59;;;;;;;;;;;30.20;61.60;;;;;;3997576;29;19935;-49
2023/07/09 15:40:40;;;;;;;;;;;30.20;61.50;;;;;;4009103;29;20399;-51
2023/07/09 15:43:23;;;;;;;;;;;30.10;61.40;;;;;;4012772;29;19947;-53